9TN7 weather

Baskin Airport
Covington, Tennessee, United States

Public forecast

Using degrees Fahrenheit for public forecast. Weather courtesy of forecast.io.

Closest aviation weather report (METAR) to Baskin Airport

Closest report is Millington-Memphis Airport, 12.6 nm (23.3 km) SSW. Retrieved 2019/10/20 21:50 UTC (42 minutes ago):

KNQA 202150Z 14006KT 10SM SCT060 25/16 A2981

Closest aviation forecast (TAF) to Baskin Airport

Closest forecast is Memphis International Airport, 31.8 nm (58.9 km) SSW. Retrieved 2019/10/20 18:39 UTC (4 hours ago):

TAF KMEM 201735Z 2018/2124 17006KT P6SM BKN050 FM210900 17008KT P6SM VCSH OVC050 WS020/22045KT FM211200 19011G20KT 4SM TSRA BKN025CB OVC050 TEMPO 2113/2116 1SM TSRA FM211900 24014G22KT P6SM VCSH SCT007 OVC015 FM212200 29012G20KT P6SM OVC040